Terminal Aerodrome Forecast
Issued by NWS Portland, ME

Home | Current Version | Previous Version | Text Only | Print | Product List | Glossary On
Versions: 1 2 3 4 5 6 7 8 9 10 11 12 13 14 15 16 17 18 19 20 21 22
000
FTUS41 KGYX 272327
TAFCON
TAF
KCON 272327Z 2800/2824 34016G26KT 1 1/2SM -SN BLSN OVC012
      TEMPO 2800/2803 1/2SM SN BLSN VV007
     FM280300 34014G20KT 2SM -SN BLSN BR OVC015
     FM280900 33010G18KT 4SM -SN BKN025 OVC040
     FM281300 33009KT P6SM -SHSN BKN040 OVC080
     FM281600 33009KT P6SM SCT050 BKN080=

USA.gov is the U.S. government's official web portal to all federal, state and local government web resources and services.